sensor_id;sensor_type;location;lat;lon;timestamp;P1;durP1;ratioP1;P2;durP2;ratioP2
43883;SDS011;29544;52.018;5.810;2023-02-12T00:01:35;7.22;;;2.47;;
43883;SDS011;29544;52.018;5.810;2023-02-12T00:04:01;3.93;;;2.10;;
43883;SDS011;29544;52.018;5.810;2023-02-12T00:06:27;3.60;;;2.30;;
43883;SDS011;29544;52.018;5.810;2023-02-12T00:08:54;3.80;;;2.20;;
43883;SDS011;29544;52.018;5.810;2023-02-12T00:11:21;3.72;;;2.03;;
43883;SDS011;29544;52.018;5.810;2023-02-12T00:13:48;3.97;;;2.00;;
43883;SDS011;29544;52.018;5.810;2023-02-12T00:16:15;2.65;;;1.90;;
43883;SDS011;29544;52.018;5.810;2023-02-12T00:18:43;3.70;;;2.20;;
43883;SDS011;29544;52.018;5.810;2023-02-12T00:21:09;3.33;;;2.10;;
43883;SDS011;29544;52.018;5.810;2023-02-12T00:23:37;4.32;;;1.80;;
43883;SDS011;29544;52.018;5.810;2023-02-12T00:26:06;3.20;;;2.00;;
43883;SDS011;29544;52.018;5.810;2023-02-12T00:28:32;3.28;;;2.30;;
43883;SDS011;29544;52.018;5.810;2023-02-12T00:31:02;3.97;;;2.13;;
43883;SDS011;29544;52.018;5.810;2023-02-12T00:33:49;5.25;;;2.30;;
43883;SDS011;29544;52.018;5.810;2023-02-12T00:36:16;4.07;;;2.30;;
43883;SDS011;29544;52.018;5.810;2023-02-12T00:38:43;3.97;;;2.30;;
43883;SDS011;29544;52.018;5.810;2023-02-12T00:41:09;3.35;;;2.03;;
43883;SDS011;29544;52.018;5.810;2023-02-12T00:43:35;3.13;;;2.08;;
43883;SDS011;29544;52.018;5.810;2023-02-12T00:46:01;3.53;;;2.10;;
43883;SDS011;29544;52.018;5.810;2023-02-12T00:48:26;3.43;;;2.17;;
43883;SDS011;29544;52.018;5.810;2023-02-12T00:50:52;3.80;;;2.10;;
43883;SDS011;29544;52.018;5.810;2023-02-12T00:53:17;2.93;;;2.03;;
43883;SDS011;29544;52.018;5.810;2023-02-12T00:55:43;3.58;;;2.45;;
43883;SDS011;29544;52.018;5.810;2023-02-12T00:58:09;3.80;;;2.25;;
43883;SDS011;29544;52.018;5.810;2023-02-12T01:00:35;3.57;;;2.20;;
43883;SDS011;29544;52.018;5.810;2023-02-12T01:03:01;6.50;;;2.70;;
43883;SDS011;29544;52.018;5.810;2023-02-12T01:05:27;4.57;;;2.58;;
43883;SDS011;29544;52.018;5.810;2023-02-12T01:07:53;2.90;;;2.00;;
43883;SDS011;29544;52.018;5.810;2023-02-12T01:10:19;3.93;;;2.30;;
43883;SDS011;29544;52.018;5.810;2023-02-12T01:12:45;3.78;;;2.70;;
43883;SDS011;29544;52.018;5.810;2023-02-12T01:15:11;3.47;;;2.20;;
43883;SDS011;29544;52.018;5.810;2023-02-12T01:17:37;4.00;;;2.45;;
43883;SDS011;29544;52.018;5.810;2023-02-12T01:20:04;4.40;;;2.35;;
43883;SDS011;29544;52.018;5.810;2023-02-12T01:22:35;4.10;;;2.83;;
43883;SDS011;29544;52.018;5.810;2023-02-12T01:25:01;3.88;;;2.20;;
43883;SDS011;29544;52.018;5.810;2023-02-12T01:27:31;3.25;;;2.45;;
43883;SDS011;29544;52.018;5.810;2023-02-12T01:29:57;4.32;;;2.63;;
43883;SDS011;29544;52.018;5.810;2023-02-12T01:32:22;3.93;;;2.30;;
43883;SDS011;29544;52.018;5.810;2023-02-12T01:34:48;3.87;;;2.27;;
43883;SDS011;29544;52.018;5.810;2023-02-12T01:37:14;3.28;;;2.20;;
43883;SDS011;29544;52.018;5.810;2023-02-12T01:39:40;3.88;;;2.58;;
43883;SDS011;29544;52.018;5.810;2023-02-12T01:42:06;3.93;;;2.67;;
43883;SDS011;29544;52.018;5.810;2023-02-12T01:44:32;3.80;;;2.50;;
43883;SDS011;29544;52.018;5.810;2023-02-12T01:47:02;3.25;;;2.30;;
43883;SDS011;29544;52.018;5.810;2023-02-12T01:52:05;3.60;;;2.40;;
43883;SDS011;29544;52.018;5.810;2023-02-12T01:54:33;4.97;;;2.60;;
43883;SDS011;29544;52.018;5.810;2023-02-12T01:57:00;4.63;;;2.58;;
43883;SDS011;29544;52.018;5.810;2023-02-12T01:59:27;3.05;;;2.13;;
43883;SDS011;29544;52.018;5.810;2023-02-12T02:01:54;5.25;;;2.70;;
43883;SDS011;29544;52.018;5.810;2023-02-12T02:04:20;4.95;;;2.83;;
43883;SDS011;29544;52.018;5.810;2023-02-12T02:06:58;4.28;;;2.22;;
43883;SDS011;29544;52.018;5.810;2023-02-12T02:09:27;4.28;;;2.78;;
43883;SDS011;29544;52.018;5.810;2023-02-12T02:11:55;3.15;;;2.22;;
43883;SDS011;29544;52.018;5.810;2023-02-12T02:14:39;3.80;;;2.80;;
43883;SDS011;29544;52.018;5.810;2023-02-12T02:25:27;3.63;;;2.63;;
43883;SDS011;29544;52.018;5.810;2023-02-12T02:33:36;3.25;;;2.30;;
43883;SDS011;29544;52.018;5.810;2023-02-12T02:38:39;3.67;;;2.77;;
43883;SDS011;29544;52.018;5.810;2023-02-12T02:44:11;4.63;;;2.78;;
43883;SDS011;29544;52.018;5.810;2023-02-12T02:46:47;4.22;;;2.88;;
43883;SDS011;29544;52.018;5.810;2023-02-12T02:49:16;3.97;;;2.63;;
43883;SDS011;29544;52.018;5.810;2023-02-12T02:51:54;4.25;;;2.28;;
43883;SDS011;29544;52.018;5.810;2023-02-12T02:54:26;4.35;;;2.50;;
43883;SDS011;29544;52.018;5.810;2023-02-12T02:56:58;3.78;;;2.47;;
43883;SDS011;29544;52.018;5.810;2023-02-12T02:59:36;4.65;;;2.60;;
43883;SDS011;29544;52.018;5.810;2023-02-12T03:02:27;3.72;;;2.78;;
43883;SDS011;29544;52.018;5.810;2023-02-12T03:05:03;4.95;;;2.92;;
43883;SDS011;29544;52.018;5.810;2023-02-12T03:07:40;4.43;;;3.00;;
43883;SDS011;29544;52.018;5.810;2023-02-12T03:10:11;4.05;;;2.80;;
43883;SDS011;29544;52.018;5.810;2023-02-12T03:12:43;3.85;;;2.38;;
43883;SDS011;29544;52.018;5.810;2023-02-12T03:15:19;5.00;;;2.90;;
43883;SDS011;29544;52.018;5.810;2023-02-12T03:17:52;3.97;;;2.55;;
43883;SDS011;29544;52.018;5.810;2023-02-12T03:20:21;3.90;;;2.87;;
43883;SDS011;29544;52.018;5.810;2023-02-12T03:22:51;3.58;;;2.65;;
43883;SDS011;29544;52.018;5.810;2023-02-12T03:25:28;6.22;;;3.00;;
43883;SDS011;29544;52.018;5.810;2023-02-12T03:28:04;4.85;;;3.10;;
43883;SDS011;29544;52.018;5.810;2023-02-12T03:30:40;4.18;;;2.70;;
43883;SDS011;29544;52.018;5.810;2023-02-12T03:38:44;4.30;;;2.92;;
43883;SDS011;29544;52.018;5.810;2023-02-12T03:41:19;5.38;;;3.40;;
43883;SDS011;29544;52.018;5.810;2023-02-12T03:46:26;3.72;;;3.00;;
43883;SDS011;29544;52.018;5.810;2023-02-12T03:49:13;4.03;;;2.72;;
43883;SDS011;29544;52.018;5.810;2023-02-12T03:51:47;4.03;;;2.88;;
43883;SDS011;29544;52.018;5.810;2023-02-12T03:54:14;3.65;;;3.05;;
43883;SDS011;29544;52.018;5.810;2023-02-12T03:56:43;5.45;;;2.80;;
43883;SDS011;29544;52.018;5.810;2023-02-12T03:59:16;7.35;;;3.17;;
43883;SDS011;29544;52.018;5.810;2023-02-12T04:01:49;5.50;;;3.40;;
43883;SDS011;29544;52.018;5.810;2023-02-12T04:04:16;5.05;;;2.83;;
43883;SDS011;29544;52.018;5.810;2023-02-12T04:06:43;5.22;;;3.20;;
43883;SDS011;29544;52.018;5.810;2023-02-12T04:09:11;3.58;;;2.72;;
43883;SDS011;29544;52.018;5.810;2023-02-12T04:22:29;4.13;;;2.75;;
43883;SDS011;29544;52.018;5.810;2023-02-12T04:30:53;5.05;;;3.03;;
43883;SDS011;29544;52.018;5.810;2023-02-12T04:33:28;4.35;;;3.13;;
43883;SDS011;29544;52.018;5.810;2023-02-12T04:36:01;4.45;;;3.03;;
43883;SDS011;29544;52.018;5.810;2023-02-12T04:38:52;4.00;;;2.97;;
43883;SDS011;29544;52.018;5.810;2023-02-12T04:41:27;5.60;;;3.50;;
43883;SDS011;29544;52.018;5.810;2023-02-12T04:43:55;4.78;;;2.70;;
43883;SDS011;29544;52.018;5.810;2023-02-12T04:46:21;4.53;;;3.03;;
43883;SDS011;29544;52.018;5.810;2023-02-12T04:48:49;4.77;;;3.10;;
43883;SDS011;29544;52.018;5.810;2023-02-12T04:51:21;4.50;;;3.17;;
43883;SDS011;29544;52.018;5.810;2023-02-12T04:53:47;4.13;;;3.07;;
43883;SDS011;29544;52.018;5.810;2023-02-12T04:56:13;5.20;;;3.40;;
43883;SDS011;29544;52.018;5.810;2023-02-12T04:58:39;5.93;;;3.23;;
43883;SDS011;29544;52.018;5.810;2023-02-12T05:01:06;4.35;;;2.70;;
43883;SDS011;29544;52.018;5.810;2023-02-12T05:03:32;5.10;;;3.33;;
43883;SDS011;29544;52.018;5.810;2023-02-12T05:06:02;4.67;;;3.10;;
43883;SDS011;29544;52.018;5.810;2023-02-12T05:08:32;5.07;;;3.00;;
43883;SDS011;29544;52.018;5.810;2023-02-12T05:11:05;3.75;;;2.97;;
43883;SDS011;29544;52.018;5.810;2023-02-12T05:13:32;5.38;;;3.28;;
43883;SDS011;29544;52.018;5.810;2023-02-12T05:15:58;5.13;;;3.45;;
43883;SDS011;29544;52.018;5.810;2023-02-12T05:18:23;4.03;;;2.60;;
43883;SDS011;29544;52.018;5.810;2023-02-12T05:20:56;4.10;;;2.97;;
43883;SDS011;29544;52.018;5.810;2023-02-12T05:23:26;5.72;;;2.92;;
43883;SDS011;29544;52.018;5.810;2023-02-12T05:25:53;4.32;;;3.08;;
43883;SDS011;29544;52.018;5.810;2023-02-12T05:28:19;6.23;;;3.40;;
43883;SDS011;29544;52.018;5.810;2023-02-12T05:30:44;4.83;;;3.40;;
43883;SDS011;29544;52.018;5.810;2023-02-12T05:33:10;4.80;;;3.00;;
43883;SDS011;29544;52.018;5.810;2023-02-12T05:35:35;5.93;;;3.77;;
43883;SDS011;29544;52.018;5.810;2023-02-12T05:38:01;4.33;;;3.03;;
43883;SDS011;29544;52.018;5.810;2023-02-12T05:40:27;4.33;;;3.10;;
43883;SDS011;29544;52.018;5.810;2023-02-12T05:42:52;4.00;;;2.77;;
43883;SDS011;29544;52.018;5.810;2023-02-12T05:45:18;4.67;;;2.93;;
43883;SDS011;29544;52.018;5.810;2023-02-12T05:47:43;4.27;;;3.00;;
43883;SDS011;29544;52.018;5.810;2023-02-12T05:50:09;4.10;;;2.80;;
43883;SDS011;29544;52.018;5.810;2023-02-12T05:52:35;4.87;;;3.50;;
43883;SDS011;29544;52.018;5.810;2023-02-12T05:55:00;4.10;;;3.00;;
43883;SDS011;29544;52.018;5.810;2023-02-12T05:57:26;5.70;;;3.43;;
43883;SDS011;29544;52.018;5.810;2023-02-12T05:59:51;5.47;;;3.00;;
43883;SDS011;29544;52.018;5.810;2023-02-12T06:02:17;3.57;;;2.77;;
43883;SDS011;29544;52.018;5.810;2023-02-12T06:04:43;3.47;;;2.87;;
43883;SDS011;29544;52.018;5.810;2023-02-12T06:07:08;3.60;;;2.87;;
43883;SDS011;29544;52.018;5.810;2023-02-12T06:09:34;4.30;;;2.73;;
43883;SDS011;29544;52.018;5.810;2023-02-12T06:11:59;4.43;;;2.90;;
43883;SDS011;29544;52.018;5.810;2023-02-12T06:14:25;3.47;;;2.97;;
43883;SDS011;29544;52.018;5.810;2023-02-12T06:16:51;5.53;;;3.17;;
43883;SDS011;29544;52.018;5.810;2023-02-12T06:19:17;5.10;;;3.47;;
43883;SDS011;29544;52.018;5.810;2023-02-12T06:21:43;3.78;;;2.90;;
43883;SDS011;29544;52.018;5.810;2023-02-12T06:24:13;5.55;;;3.30;;
43883;SDS011;29544;52.018;5.810;2023-02-12T06:26:39;4.95;;;3.28;;
43883;SDS011;29544;52.018;5.810;2023-02-12T06:29:05;3.87;;;2.97;;
43883;SDS011;29544;52.018;5.810;2023-02-12T06:31:32;4.07;;;2.70;;
43883;SDS011;29544;52.018;5.810;2023-02-12T06:34:06;5.90;;;3.28;;
43883;SDS011;29544;52.018;5.810;2023-02-12T06:36:34;4.28;;;3.42;;
43883;SDS011;29544;52.018;5.810;2023-02-12T06:39:02;6.10;;;3.22;;
43883;SDS011;29544;52.018;5.810;2023-02-12T06:41:29;6.25;;;3.50;;
43883;SDS011;29544;52.018;5.810;2023-02-12T06:43:54;5.47;;;3.30;;
43883;SDS011;29544;52.018;5.810;2023-02-12T06:46:20;4.43;;;2.87;;
43883;SDS011;29544;52.018;5.810;2023-02-12T06:48:46;4.10;;;2.85;;
43883;SDS011;29544;52.018;5.810;2023-02-12T06:51:13;6.17;;;2.80;;
43883;SDS011;29544;52.018;5.810;2023-02-12T06:53:42;4.05;;;3.10;;
43883;SDS011;29544;52.018;5.810;2023-02-12T06:56:09;3.22;;;2.72;;
43883;SDS011;29544;52.018;5.810;2023-02-12T06:58:37;3.83;;;2.75;;
43883;SDS011;29544;52.018;5.810;2023-02-12T07:01:23;4.97;;;2.90;;
43883;SDS011;29544;52.018;5.810;2023-02-12T07:03:52;4.47;;;3.10;;
43883;SDS011;29544;52.018;5.810;2023-02-12T07:06:19;4.85;;;3.13;;
43883;SDS011;29544;52.018;5.810;2023-02-12T07:11:12;3.90;;;3.00;;
43883;SDS011;29544;52.018;5.810;2023-02-12T07:13:39;3.67;;;2.55;;
43883;SDS011;29544;52.018;5.810;2023-02-12T07:16:06;3.67;;;3.00;;
43883;SDS011;29544;52.018;5.810;2023-02-12T07:18:33;3.83;;;2.85;;
43883;SDS011;29544;52.018;5.810;2023-02-12T07:20:59;4.75;;;3.00;;
43883;SDS011;29544;52.018;5.810;2023-02-12T07:23:25;3.83;;;2.90;;
43883;SDS011;29544;52.018;5.810;2023-02-12T07:25:55;3.87;;;2.90;;
43883;SDS011;29544;52.018;5.810;2023-02-12T07:28:28;4.22;;;2.70;;
43883;SDS011;29544;52.018;5.810;2023-02-12T07:30:57;4.82;;;3.13;;
43883;SDS011;29544;52.018;5.810;2023-02-12T07:33:23;5.57;;;3.40;;
43883;SDS011;29544;52.018;5.810;2023-02-12T07:35:48;5.13;;;2.90;;
43883;SDS011;29544;52.018;5.810;2023-02-12T07:38:14;4.00;;;2.90;;
43883;SDS011;29544;52.018;5.810;2023-02-12T07:40:39;4.00;;;2.80;;
43883;SDS011;29544;52.018;5.810;2023-02-12T07:43:05;3.80;;;2.53;;
43883;SDS011;29544;52.018;5.810;2023-02-12T07:45:30;4.23;;;2.83;;
43883;SDS011;29544;52.018;5.810;2023-02-12T07:47:56;4.40;;;2.93;;
43883;SDS011;29544;52.018;5.810;2023-02-12T07:50:21;3.33;;;2.73;;
43883;SDS011;29544;52.018;5.810;2023-02-12T07:52:47;4.60;;;3.03;;
43883;SDS011;29544;52.018;5.810;2023-02-12T07:55:14;5.30;;;3.10;;
43883;SDS011;29544;52.018;5.810;2023-02-12T07:57:40;4.97;;;3.47;;
43883;SDS011;29544;52.018;5.810;2023-02-12T08:00:06;5.23;;;3.17;;
43883;SDS011;29544;52.018;5.810;2023-02-12T08:02:32;3.60;;;2.78;;
43883;SDS011;29544;52.018;5.810;2023-02-12T08:04:57;4.00;;;3.07;;
43883;SDS011;29544;52.018;5.810;2023-02-12T08:07:23;4.73;;;3.20;;
43883;SDS011;29544;52.018;5.810;2023-02-12T08:09:49;4.25;;;3.03;;
43883;SDS011;29544;52.018;5.810;2023-02-12T08:12:16;4.35;;;3.20;;
43883;SDS011;29544;52.018;5.810;2023-02-12T08:14:42;5.22;;;3.13;;
43883;SDS011;29544;52.018;5.810;2023-02-12T08:17:08;4.18;;;3.00;;
43883;SDS011;29544;52.018;5.810;2023-02-12T08:19:34;3.47;;;2.87;;
43883;SDS011;29544;52.018;5.810;2023-02-12T08:22:00;5.65;;;3.25;;
43883;SDS011;29544;52.018;5.810;2023-02-12T08:24:27;4.63;;;3.33;;
43883;SDS011;29544;52.018;5.810;2023-02-12T08:26:53;3.90;;;2.80;;
43883;SDS011;29544;52.018;5.810;2023-02-12T08:29:24;4.65;;;2.90;;
43883;SDS011;29544;52.018;5.810;2023-02-12T08:31:59;5.53;;;3.28;;
43883;SDS011;29544;52.018;5.810;2023-02-12T08:34:30;5.07;;;3.10;;
43883;SDS011;29544;52.018;5.810;2023-02-12T08:36:57;5.68;;;2.80;;
43883;SDS011;29544;52.018;5.810;2023-02-12T08:39:24;5.15;;;3.10;;
43883;SDS011;29544;52.018;5.810;2023-02-12T08:41:52;3.50;;;2.58;;
43883;SDS011;29544;52.018;5.810;2023-02-12T08:44:19;6.22;;;3.42;;
43883;SDS011;29544;52.018;5.810;2023-02-12T08:46:46;3.53;;;2.80;;
43883;SDS011;29544;52.018;5.810;2023-02-12T08:49:15;9.68;;;3.05;;
43883;SDS011;29544;52.018;5.810;2023-02-12T08:51:46;5.15;;;3.45;;
43883;SDS011;29544;52.018;5.810;2023-02-12T08:54:14;4.75;;;3.28;;
43883;SDS011;29544;52.018;5.810;2023-02-12T08:56:42;6.78;;;3.40;;
43883;SDS011;29544;52.018;5.810;2023-02-12T08:59:09;6.47;;;3.42;;
43883;SDS011;29544;52.018;5.810;2023-02-12T09:01:36;5.22;;;3.17;;
43883;SDS011;29544;52.018;5.810;2023-02-12T09:04:03;7.43;;;3.08;;
43883;SDS011;29544;52.018;5.810;2023-02-12T09:06:30;4.72;;;2.90;;
43883;SDS011;29544;52.018;5.810;2023-02-12T09:08:57;4.15;;;2.70;;
43883;SDS011;29544;52.018;5.810;2023-02-12T09:11:24;5.30;;;3.03;;
43883;SDS011;29544;52.018;5.810;2023-02-12T09:13:55;6.20;;;3.35;;
43883;SDS011;29544;52.018;5.810;2023-02-12T09:16:34;6.00;;;2.80;;
43883;SDS011;29544;52.018;5.810;2023-02-12T09:19:01;5.28;;;3.67;;
43883;SDS011;29544;52.018;5.810;2023-02-12T09:21:27;4.10;;;2.95;;
43883;SDS011;29544;52.018;5.810;2023-02-12T09:23:52;5.27;;;2.73;;
43883;SDS011;29544;52.018;5.810;2023-02-12T09:26:19;4.77;;;3.00;;
43883;SDS011;29544;52.018;5.810;2023-02-12T09:28:47;4.90;;;2.83;;
43883;SDS011;29544;52.018;5.810;2023-02-12T09:31:15;3.72;;;2.80;;
43883;SDS011;29544;52.018;5.810;2023-02-12T09:33:45;5.25;;;2.72;;
43883;SDS011;29544;52.018;5.810;2023-02-12T09:36:12;4.90;;;2.90;;
43883;SDS011;29544;52.018;5.810;2023-02-12T09:38:40;5.97;;;3.08;;
43883;SDS011;29544;52.018;5.810;2023-02-12T09:43:52;3.33;;;2.75;;
43883;SDS011;29544;52.018;5.810;2023-02-12T09:51:59;3.30;;;2.95;;
43883;SDS011;29544;52.018;5.810;2023-02-12T09:54:29;4.20;;;2.83;;
43883;SDS011;29544;52.018;5.810;2023-02-12T09:59:32;3.95;;;2.67;;
43883;SDS011;29544;52.018;5.810;2023-02-12T10:02:01;5.63;;;3.08;;
43883;SDS011;29544;52.018;5.810;2023-02-12T10:04:30;4.70;;;3.30;;
43883;SDS011;29544;52.018;5.810;2023-02-12T10:07:01;3.88;;;2.90;;
43883;SDS011;29544;52.018;5.810;2023-02-12T10:12:29;8.38;;;4.72;;
43883;SDS011;29544;52.018;5.810;2023-02-12T10:18:03;8.10;;;5.70;;
43883;SDS011;29544;52.018;5.810;2023-02-12T10:24:04;7.43;;;5.97;;
43883;SDS011;29544;52.018;5.810;2023-02-12T10:26:54;7.80;;;6.28;;
43883;SDS011;29544;52.018;5.810;2023-02-12T10:29:26;8.75;;;7.00;;
43883;SDS011;29544;52.018;5.810;2023-02-12T10:32:06;10.88;;;6.85;;
43883;SDS011;29544;52.018;5.810;2023-02-12T10:34:51;12.02;;;8.30;;
43883;SDS011;29544;52.018;5.810;2023-02-12T10:40:23;8.77;;;7.55;;
43883;SDS011;29544;52.018;5.810;2023-02-12T10:42:50;11.00;;;9.05;;
43883;SDS011;29544;52.018;5.810;2023-02-12T10:45:19;12.40;;;8.85;;
43883;SDS011;29544;52.018;5.810;2023-02-12T10:47:48;10.43;;;8.70;;
43883;SDS011;29544;52.018;5.810;2023-02-12T10:50:20;11.35;;;8.75;;
43883;SDS011;29544;52.018;5.810;2023-02-12T10:52:48;9.95;;;7.25;;
43883;SDS011;29544;52.018;5.810;2023-02-12T10:55:28;10.70;;;7.78;;
43883;SDS011;29544;52.018;5.810;2023-02-12T10:57:57;9.77;;;7.80;;
43883;SDS011;29544;52.018;5.810;2023-02-12T11:00:25;10.13;;;7.57;;
43883;SDS011;29544;52.018;5.810;2023-02-12T11:02:59;10.93;;;8.73;;
43883;SDS011;29544;52.018;5.810;2023-02-12T11:05:29;9.55;;;7.07;;
43883;SDS011;29544;52.018;5.810;2023-02-12T11:07:56;10.55;;;7.50;;
43883;SDS011;29544;52.018;5.810;2023-02-12T11:10:26;10.73;;;7.67;;
43883;SDS011;29544;52.018;5.810;2023-02-12T11:12:53;9.30;;;7.43;;
43883;SDS011;29544;52.018;5.810;2023-02-12T11:15:21;9.48;;;7.38;;
43883;SDS011;29544;52.018;5.810;2023-02-12T11:17:58;10.63;;;7.85;;
43883;SDS011;29544;52.018;5.810;2023-02-12T11:20:27;9.25;;;7.35;;
43883;SDS011;29544;52.018;5.810;2023-02-12T11:23:04;8.40;;;7.07;;
43883;SDS011;29544;52.018;5.810;2023-02-12T11:25:32;9.75;;;7.55;;
43883;SDS011;29544;52.018;5.810;2023-02-12T11:28:18;8.52;;;6.45;;
43883;SDS011;29544;52.018;5.810;2023-02-12T11:30:55;9.43;;;6.95;;
43883;SDS011;29544;52.018;5.810;2023-02-12T11:33:24;8.88;;;6.28;;
43883;SDS011;29544;52.018;5.810;2023-02-12T11:35:54;7.72;;;6.22;;
43883;SDS011;29544;52.018;5.810;2023-02-12T11:38:27;9.68;;;6.53;;
43883;SDS011;29544;52.018;5.810;2023-02-12T11:40:59;9.27;;;5.78;;
43883;SDS011;29544;52.018;5.810;2023-02-12T11:43:27;7.53;;;6.03;;
43883;SDS011;29544;52.018;5.810;2023-02-12T11:45:55;9.35;;;6.88;;
43883;SDS011;29544;52.018;5.810;2023-02-12T11:48:32;9.13;;;6.85;;
43883;SDS011;29544;52.018;5.810;2023-02-12T11:51:02;9.65;;;6.82;;
43883;SDS011;29544;52.018;5.810;2023-02-12T11:53:34;9.25;;;6.72;;
43883;SDS011;29544;52.018;5.810;2023-02-12T11:56:08;9.57;;;6.60;;
43883;SDS011;29544;52.018;5.810;2023-02-12T11:58:36;9.10;;;6.88;;
43883;SDS011;29544;52.018;5.810;2023-02-12T12:01:04;8.35;;;6.75;;
43883;SDS011;29544;52.018;5.810;2023-02-12T12:06:33;9.52;;;7.45;;
43883;SDS011;29544;52.018;5.810;2023-02-12T12:09:23;9.05;;;7.63;;
43883;SDS011;29544;52.018;5.810;2023-02-12T12:12:10;10.20;;;7.80;;
43883;SDS011;29544;52.018;5.810;2023-02-12T12:14:53;9.32;;;7.10;;
43883;SDS011;29544;52.018;5.810;2023-02-12T12:17:46;11.48;;;7.75;;
43883;SDS011;29544;52.018;5.810;2023-02-12T12:20:37;8.90;;;6.90;;
43883;SDS011;29544;52.018;5.810;2023-02-12T12:23:20;8.70;;;6.07;;
43883;SDS011;29544;52.018;5.810;2023-02-12T12:25:54;8.15;;;6.40;;
43883;SDS011;29544;52.018;5.810;2023-02-12T12:31:16;12.10;;;6.32;;
43883;SDS011;29544;52.018;5.810;2023-02-12T12:33:45;8.60;;;6.32;;
43883;SDS011;29544;52.018;5.810;2023-02-12T12:38:47;10.27;;;6.37;;
43883;SDS011;29544;52.018;5.810;2023-02-12T12:41:52;10.88;;;6.40;;
43883;SDS011;29544;52.018;5.810;2023-02-12T12:44:51;9.82;;;5.90;;
43883;SDS011;29544;52.018;5.810;2023-02-12T12:56:44;9.15;;;6.18;;
43883;SDS011;29544;52.018;5.810;2023-02-12T12:59:20;9.80;;;5.88;;
43883;SDS011;29544;52.018;5.810;2023-02-12T13:07:18;7.13;;;5.25;;
43883;SDS011;29544;52.018;5.810;2023-02-12T13:13:23;14.30;;;6.25;;
43883;SDS011;29544;52.018;5.810;2023-02-12T13:15:54;11.88;;;6.38;;
43883;SDS011;29544;52.018;5.810;2023-02-12T13:18:32;10.85;;;6.45;;
43883;SDS011;29544;52.018;5.810;2023-02-12T13:26:52;13.30;;;6.43;;
43883;SDS011;29544;52.018;5.810;2023-02-12T13:32:04;8.70;;;5.68;;
43883;SDS011;29544;52.018;5.810;2023-02-12T13:34:35;9.73;;;5.32;;
43883;SDS011;29544;52.018;5.810;2023-02-12T13:37:03;9.48;;;5.70;;
43883;SDS011;29544;52.018;5.810;2023-02-12T13:39:35;8.50;;;7.05;;
43883;SDS011;29544;52.018;5.810;2023-02-12T13:47:31;10.75;;;7.30;;
43883;SDS011;29544;52.018;5.810;2023-02-12T13:50:05;10.65;;;8.02;;
43883;SDS011;29544;52.018;5.810;2023-02-12T13:53:00;9.73;;;7.32;;
43883;SDS011;29544;52.018;5.810;2023-02-12T13:55:38;13.90;;;7.22;;
43883;SDS011;29544;52.018;5.810;2023-02-12T14:01:05;12.50;;;7.60;;
43883;SDS011;29544;52.018;5.810;2023-02-12T14:04:12;10.30;;;7.30;;
43883;SDS011;29544;52.018;5.810;2023-02-12T14:09:42;11.40;;;7.30;;
43883;SDS011;29544;52.018;5.810;2023-02-12T14:14:53;9.95;;;5.88;;
43883;SDS011;29544;52.018;5.810;2023-02-12T14:22:56;8.48;;;5.47;;
43883;SDS011;29544;52.018;5.810;2023-02-12T14:25:42;8.65;;;5.15;;
43883;SDS011;29544;52.018;5.810;2023-02-12T14:28:21;7.95;;;5.60;;
43883;SDS011;29544;52.018;5.810;2023-02-12T14:31:16;13.15;;;6.00;;
43883;SDS011;29544;52.018;5.810;2023-02-12T14:41:49;5.68;;;4.20;;
43883;SDS011;29544;52.018;5.810;2023-02-12T14:46:45;5.72;;;4.47;;
43883;SDS011;29544;52.018;5.810;2023-02-12T14:49:32;8.23;;;5.40;;
43883;SDS011;29544;52.018;5.810;2023-02-12T14:54:28;7.60;;;4.38;;
43883;SDS011;29544;52.018;5.810;2023-02-12T14:57:03;6.28;;;4.50;;
43883;SDS011;29544;52.018;5.810;2023-02-12T14:59:35;7.13;;;5.05;;
43883;SDS011;29544;52.018;5.810;2023-02-12T15:02:04;9.02;;;4.97;;
43883;SDS011;29544;52.018;5.810;2023-02-12T15:04:37;5.32;;;4.25;;
43883;SDS011;29544;52.018;5.810;2023-02-12T15:07:07;7.03;;;4.75;;
43883;SDS011;29544;52.018;5.810;2023-02-12T15:12:46;8.98;;;4.43;;
43883;SDS011;29544;52.018;5.810;2023-02-12T15:15:41;5.63;;;3.65;;
43883;SDS011;29544;52.018;5.810;2023-02-12T15:23:45;6.80;;;4.00;;
43883;SDS011;29544;52.018;5.810;2023-02-12T15:26:15;5.78;;;4.05;;
43883;SDS011;29544;52.018;5.810;2023-02-12T15:28:46;4.60;;;3.63;;
43883;SDS011;29544;52.018;5.810;2023-02-12T15:31:15;6.20;;;3.50;;
43883;SDS011;29544;52.018;5.810;2023-02-12T15:33:44;5.10;;;3.40;;
43883;SDS011;29544;52.018;5.810;2023-02-12T15:36:15;7.95;;;4.10;;
43883;SDS011;29544;52.018;5.810;2023-02-12T15:38:43;7.43;;;3.70;;
43883;SDS011;29544;52.018;5.810;2023-02-12T15:41:29;6.80;;;3.72;;
43883;SDS011;29544;52.018;5.810;2023-02-12T15:44:03;6.85;;;4.00;;
43883;SDS011;29544;52.018;5.810;2023-02-12T15:46:51;5.38;;;3.50;;
43883;SDS011;29544;52.018;5.810;2023-02-12T15:49:38;6.45;;;3.58;;
43883;SDS011;29544;52.018;5.810;2023-02-12T15:52:07;4.25;;;3.58;;
43883;SDS011;29544;52.018;5.810;2023-02-12T15:54:39;4.68;;;3.45;;
43883;SDS011;29544;52.018;5.810;2023-02-12T15:57:11;5.30;;;3.37;;
43883;SDS011;29544;52.018;5.810;2023-02-12T15:59:51;5.15;;;3.97;;
43883;SDS011;29544;52.018;5.810;2023-02-12T16:02:20;4.82;;;3.50;;
43883;SDS011;29544;52.018;5.810;2023-02-12T16:04:49;5.75;;;3.70;;
43883;SDS011;29544;52.018;5.810;2023-02-12T16:07:15;5.57;;;3.80;;
43883;SDS011;29544;52.018;5.810;2023-02-12T16:09:41;4.97;;;3.90;;
43883;SDS011;29544;52.018;5.810;2023-02-12T16:12:09;4.82;;;3.10;;
43883;SDS011;29544;52.018;5.810;2023-02-12T16:14:46;7.25;;;4.18;;
43883;SDS011;29544;52.018;5.810;2023-02-12T16:17:20;6.95;;;3.70;;
43883;SDS011;29544;52.018;5.810;2023-02-12T16:19:56;7.75;;;4.03;;
43883;SDS011;29544;52.018;5.810;2023-02-12T16:22:30;4.93;;;3.70;;
43883;SDS011;29544;52.018;5.810;2023-02-12T16:25:00;5.43;;;3.90;;
43883;SDS011;29544;52.018;5.810;2023-02-12T16:27:27;5.68;;;3.35;;
43883;SDS011;29544;52.018;5.810;2023-02-12T16:30:01;5.22;;;3.60;;
43883;SDS011;29544;52.018;5.810;2023-02-12T16:32:46;6.95;;;4.03;;
43883;SDS011;29544;52.018;5.810;2023-02-12T16:37:43;4.45;;;3.63;;
43883;SDS011;29544;52.018;5.810;2023-02-12T16:47:59;5.78;;;4.18;;
43883;SDS011;29544;52.018;5.810;2023-02-12T16:50:29;7.20;;;4.22;;
43883;SDS011;29544;52.018;5.810;2023-02-12T16:52:58;5.05;;;3.95;;
43883;SDS011;29544;52.018;5.810;2023-02-12T16:55:44;5.10;;;3.60;;
43883;SDS011;29544;52.018;5.810;2023-02-12T16:58:10;5.40;;;4.10;;
43883;SDS011;29544;52.018;5.810;2023-02-12T17:00:35;5.53;;;3.70;;
43883;SDS011;29544;52.018;5.810;2023-02-12T17:03:01;6.80;;;3.67;;
43883;SDS011;29544;52.018;5.810;2023-02-12T17:05:26;8.63;;;3.83;;
43883;SDS011;29544;52.018;5.810;2023-02-12T17:07:52;6.17;;;3.57;;
43883;SDS011;29544;52.018;5.810;2023-02-12T17:10:17;7.23;;;3.73;;
43883;SDS011;29544;52.018;5.810;2023-02-12T17:12:50;5.77;;;3.27;;
43883;SDS011;29544;52.018;5.810;2023-02-12T17:15:18;4.68;;;2.85;;
43883;SDS011;29544;52.018;5.810;2023-02-12T17:17:53;6.55;;;3.90;;
43883;SDS011;29544;52.018;5.810;2023-02-12T17:20:19;4.07;;;3.43;;
43883;SDS011;29544;52.018;5.810;2023-02-12T17:22:48;3.83;;;3.30;;
43883;SDS011;29544;52.018;5.810;2023-02-12T17:25:16;5.20;;;3.67;;
43883;SDS011;29544;52.018;5.810;2023-02-12T17:27:42;5.93;;;3.30;;
43883;SDS011;29544;52.018;5.810;2023-02-12T17:30:09;3.80;;;3.03;;
43883;SDS011;29544;52.018;5.810;2023-02-12T17:32:39;4.25;;;3.22;;
43883;SDS011;29544;52.018;5.810;2023-02-12T17:35:05;5.17;;;3.37;;
43883;SDS011;29544;52.018;5.810;2023-02-12T17:37:30;7.23;;;3.40;;
43883;SDS011;29544;52.018;5.810;2023-02-12T17:39:56;4.60;;;3.50;;
43883;SDS011;29544;52.018;5.810;2023-02-12T17:42:22;6.33;;;3.43;;
43883;SDS011;29544;52.018;5.810;2023-02-12T17:44:47;5.87;;;3.37;;